Time;durP1;ratioP1;P1;durP2;ratioP2;P2;SDS_P1;SDS_P2;PMS_P1;PMS_P2;Temp;Humidity;BMP_temperature;BMP_pressure;BME280_temperature;BME280_humidity;BME280_pressure;Samples;Min_cycle;Max_cycle;Signal;HPM_P1;HPM_P2
2022/10/10 00:02:05;;;;;;;18.30;12.90;;;;;;;16.31;57.45;100256.38;118781;1192;21817;-85
2022/10/10 00:04:35;;;;;;;17.20;12.40;;;;;;;16.32;57.52;100257.41;118587;1192;22338;-86
2022/10/10 00:07:02;;;;;;;18.60;11.90;;;;;;;16.35;57.52;100252.14;118770;1192;21853;-85
2022/10/10 00:09:29;;;;;;;17.80;13.40;;;;;;;16.40;57.19;100255.30;118768;1191;21645;-85
2022/10/10 00:11:56;;;;;;;19.90;13.40;;;;;;;16.33;57.44;100251.16;118801;1191;21762;-86
2022/10/10 00:17:27;;;;;;;21.70;15.10;;;;;;;16.39;57.33;100251.98;120129;1177;21830;-86
2022/10/10 00:19:56;;;;;;;27.80;15.00;;;;;;;16.36;57.24;100246.60;118804;1191;22248;-88
2022/10/10 00:22:23;;;;;;;19.60;13.70;;;;;;;16.38;57.07;100247.61;118793;1191;21757;-86
2022/10/10 00:24:50;;;;;;;22.80;14.30;;;;;;;16.37;57.09;100239.69;118814;1191;21850;-88
2022/10/10 00:27:19;;;;;;;23.60;15.20;;;;;;;16.29;57.53;100243.70;118799;1191;21863;-87
2022/10/10 00:29:46;;;;;;;21.20;14.20;;;;;;;16.29;57.58;100251.48;118838;1191;21765;-87
2022/10/10 00:32:19;;;;;;;19.10;12.60;;;;;;;16.35;57.19;100249.85;118823;1191;21656;-89
2022/10/10 00:34:46;;;;;;;16.70;12.10;;;;;;;16.49;56.84;100239.73;118713;1189;21805;-88
2022/10/10 00:37:15;;;;;;;25.20;16.00;;;;;;;16.40;57.10;100242.73;118818;1191;21748;-87
2022/10/10 00:39:42;;;;;;;20.60;14.00;;;;;;;16.44;56.91;100238.52;119137;1178;21796;-84
2022/10/10 00:42:13;;;;;;;22.90;16.80;;;;;;;16.37;57.13;100254.89;118834;1186;22322;-88
2022/10/10 00:44:42;;;;;;;25.70;15.00;;;;;;;16.38;57.08;100238.94;118811;1191;21775;-84
2022/10/10 00:47:09;;;;;;;24.80;14.90;;;;;;;16.27;57.18;100250.85;118779;1190;21754;-86
2022/10/10 00:49:38;;;;;;;20.00;14.20;;;;;;;16.21;57.22;100251.62;118736;1191;21666;-85
2022/10/10 00:55:40;;;;;;;24.00;14.50;;;;;;;16.11;57.39;100259.42;120169;1177;21809;31
2022/10/10 00:58:08;;;;;;;25.50;15.50;;;;;;;16.06;57.20;100259.95;118684;1191;21787;-87
2022/10/10 01:00:34;;;;;;;24.00;13.10;;;;;;;15.94;57.34;100254.18;118696;1192;21778;-86
2022/10/10 01:03:02;;;;;;;25.50;14.80;;;;;;;15.90;57.34;100249.73;118701;1188;22079;-88
2022/10/10 01:05:29;;;;;;;26.80;13.60;;;;;;;15.90;57.20;100249.20;118715;1191;21787;-86
2022/10/10 01:07:56;;;;;;;22.70;13.90;;;;;;;15.79;57.77;100247.80;118694;1191;22113;-87
2022/10/10 01:10:23;;;;;;;26.30;14.20;;;;;;;15.73;57.66;100251.91;118662;1189;21701;-87
2022/10/10 01:16:34;;;;;;;17.30;12.40;;;;;;;15.57;57.98;100259.36;119802;1176;21806;-86
2022/10/10 01:19:17;;;;;;;22.20;11.80;;;;;;;15.59;57.57;100256.48;119206;1178;21794;-87
2022/10/10 01:21:53;;;;;;;19.10;12.00;;;;;;;15.54;57.75;100252.02;118761;1191;21785;-88
2022/10/10 01:24:46;;;;;;;23.40;12.30;;;;;;;15.48;57.99;100254.71;118841;1191;22073;-90
2022/10/10 01:30:18;;;;;;;21.90;11.20;;;;;;;15.48;58.01;100252.23;119912;1177;21861;-87
2022/10/10 01:33:07;;;;;;;15.80;11.00;;;;;;;15.46;57.85;100260.42;119370;1178;22291;-89
2022/10/10 01:35:50;;;;;;;16.80;10.50;;;;;;;15.39;58.11;100256.08;118776;1191;21779;-90
2022/10/10 01:38:32;;;;;;;18.60;10.00;;;;;;;15.41;58.10;100257.06;118799;1191;22156;-88
2022/10/10 01:41:08;;;;;;;12.90;9.30;;;;;;;15.33;58.36;100264.23;118666;1191;22220;-89
2022/10/10 01:43:36;;;;;;;13.60;9.50;;;;;;;15.25;58.25;100262.02;118807;1191;21688;-89
2022/10/10 01:46:14;;;;;;;18.10;9.70;;;;;;;15.19;58.44;100266.31;118718;1192;21789;-87
2022/10/10 01:48:41;;;;;;;17.40;9.10;;;;;;;15.16;58.47;100266.95;118748;1190;21769;-87
2022/10/10 01:51:26;;;;;;;14.90;9.30;;;;;;;15.12;58.38;100268.12;118721;1191;22135;-89
2022/10/10 01:53:53;;;;;;;12.80;8.20;;;;;;;15.10;58.49;100269.61;118776;1187;21775;-87
2022/10/10 01:56:39;;;;;;;12.80;7.80;;;;;;;15.05;58.76;100270.98;118761;1192;21780;-88
2022/10/10 01:59:10;;;;;;;9.30;6.20;;;;;;;15.06;58.85;100279.96;118750;1191;21790;-87
2022/10/10 02:01:53;;;;;;;7.70;5.40;;;;;;;15.01;59.06;100269.02;118644;1192;21856;-88
2022/10/10 02:04:24;;;;;;;11.70;6.50;;;;;;;14.98;59.08;100277.39;118551;1189;21794;-87
2022/10/10 02:06:54;;;;;;;11.20;6.90;;;;;;;14.95;58.99;100281.73;118725;1191;21772;-87
2022/10/10 02:09:34;;;;;;;10.20;5.90;;;;;;;14.85;59.97;100285.04;118787;1191;21841;-88
2022/10/10 02:12:02;;;;;;;8.20;5.70;;;;;;;14.79;60.09;100284.71;118730;1188;21774;-86
2022/10/10 02:14:32;;;;;;;11.00;5.80;;;;;;;14.80;60.03;100285.92;118822;1191;21787;-88
2022/10/10 02:16:59;;;;;;;11.20;6.00;;;;;;;14.72;60.77;100287.76;118796;1191;21776;-89
2022/10/10 02:19:27;;;;;;;11.60;6.20;;;;;;;14.82;59.74;100287.26;118703;1191;21725;-88
2022/10/10 02:21:55;;;;;;;9.60;6.10;;;;;;;14.80;60.32;100291.94;118784;1191;21739;-91
2022/10/10 02:24:22;;;;;;;10.50;6.50;;;;;;;14.80;60.07;100296.34;118784;1190;21836;-87
2022/10/10 02:26:58;;;;;;;11.20;5.80;;;;;;;14.76;60.82;100296.13;118761;1191;22228;-90
2022/10/10 02:29:27;;;;;;;11.30;7.00;;;;;;;14.72;60.82;100303.47;118830;1191;22135;-88
2022/10/10 02:32:09;;;;;;;12.50;6.50;;;;;;;14.63;61.21;100300.02;118752;1187;21771;-90
2022/10/10 02:34:38;;;;;;;14.60;8.00;;;;;;;14.70;60.89;100298.42;118859;1190;21736;-90
2022/10/10 02:40:20;;;;;;;12.30;7.30;;;;;;;14.64;61.40;100301.73;118701;1189;21752;-89
2022/10/10 02:42:47;;;;;;;14.50;7.10;;;;;;;14.68;60.74;100303.03;118723;1191;21721;-90
2022/10/10 02:45:15;;;;;;;11.90;5.90;;;;;;;14.66;60.99;100306.81;118648;1191;21768;-89
2022/10/10 02:47:43;;;;;;;13.20;6.70;;;;;;;14.62;61.22;100302.52;118737;1191;21846;-89
2022/10/10 02:50:11;;;;;;;12.30;7.40;;;;;;;14.61;61.25;100300.59;118697;1187;21804;-89
2022/10/10 02:52:38;;;;;;;11.60;7.40;;;;;;;14.55;62.05;100300.59;118739;1191;21772;-87
2022/10/10 02:55:05;;;;;;;19.80;8.40;;;;;;;14.60;61.27;100301.35;118646;1192;21798;-89
2022/10/10 02:57:32;;;;;;;12.60;7.50;;;;;;;14.59;61.26;100307.35;118623;1192;21813;-92
2022/10/10 03:00:00;;;;;;;29.00;9.30;;;;;;;14.57;61.94;100304.94;118631;1188;21857;-87
2022/10/10 03:02:27;;;;;;;11.00;7.20;;;;;;;14.48;62.00;100304.35;118666;1192;21849;-90
2022/10/10 03:04:54;;;;;;;11.00;6.60;;;;;;;14.50;62.05;100307.65;118762;1191;21877;-89
2022/10/10 03:07:21;;;;;;;11.90;7.50;;;;;;;14.54;61.75;100310.33;118643;1191;21776;-88
2022/10/10 03:09:48;;;;;;;9.60;5.70;;;;;;;14.44;62.85;100313.64;118744;1191;22242;-89
2022/10/10 03:12:15;;;;;;;16.30;8.20;;;;;;;14.34;63.34;100319.58;118662;1189;21777;-90
2022/10/10 03:14:43;;;;;;;16.60;6.80;;;;;;;14.38;62.75;100314.14;118719;1191;21788;-90
2022/10/10 03:17:10;;;;;;;10.70;7.70;;;;;;;14.40;62.70;100315.52;118521;1191;21798;-90
2022/10/10 03:19:37;;;;;;;16.70;5.30;;;;;;;14.36;62.78;100324.10;118716;1191;21783;-90
2022/10/10 03:22:05;;;;;;;7.50;5.50;;;;;;;14.41;62.74;100327.13;118736;1188;21841;-89
2022/10/10 03:24:32;;;;;;;9.60;6.30;;;;;;;14.46;62.39;100330.17;118695;1191;21769;-88
2022/10/10 03:26:59;;;;;;;11.40;6.00;;;;;;;14.38;63.54;100324.94;118755;1191;21785;-93
2022/10/10 03:29:26;;;;;;;7.00;4.80;;;;;;;14.38;63.27;100330.23;118517;1194;21793;-88
2022/10/10 03:31:53;;;;;;;11.50;6.90;;;;;;;14.42;62.86;100326.06;118572;1193;21745;-88
2022/10/10 03:34:20;;;;;;;8.80;5.10;;;;;;;14.43;62.79;100318.78;118626;1192;21884;-89
2022/10/10 03:36:50;;;;;;;10.20;5.40;;;;;;;14.50;62.13;100322.82;118635;1193;21786;-88
2022/10/10 03:39:17;;;;;;;8.80;5.00;;;;;;;14.50;62.66;100324.20;118562;1193;21806;-88
2022/10/10 03:41:44;;;;;;;9.80;5.60;;;;;;;14.53;62.71;100321.83;118549;1194;22322;-89
2022/10/10 03:44:11;;;;;;;8.80;5.80;;;;;;;14.50;63.00;100321.07;118421;1194;21817;-89
2022/10/10 03:46:38;;;;;;;10.40;6.80;;;;;;;14.53;63.03;100325.55;118525;1194;21810;-92
2022/10/10 03:49:05;;;;;;;11.30;5.80;;;;;;;14.52;63.39;100325.24;118433;1194;22025;-87
2022/10/10 03:51:32;;;;;;;8.30;5.40;;;;;;;14.60;62.74;100327.84;118397;1192;21690;-92
2022/10/10 03:53:59;;;;;;;11.60;4.70;;;;;;;14.59;63.30;100325.38;118427;1194;21863;-88
2022/10/10 03:56:26;;;;;;;8.70;5.30;;;;;;;14.56;63.77;100329.69;118370;1194;21751;-86
2022/10/10 03:58:53;;;;;;;9.00;5.00;;;;;;;14.51;64.16;100333.38;118476;1192;21777;-90
2022/10/10 04:01:20;;;;;;;7.40;4.80;;;;;;;14.45;64.52;100329.66;118649;1189;21801;-88
2022/10/10 04:03:47;;;;;;;10.60;5.00;;;;;;;14.58;63.79;100331.42;118562;1193;21787;-90
2022/10/10 04:06:18;;;;;;;8.60;5.10;;;;;;;14.73;63.32;100329.39;118735;1189;21799;-89
2022/10/10 04:08:45;;;;;;;7.50;4.70;;;;;;;14.78;63.64;100332.80;118774;1192;21783;-89
2022/10/10 04:11:12;;;;;;;7.30;4.90;;;;;;;14.79;63.94;100337.69;118804;1192;21767;-89
2022/10/10 04:13:41;;;;;;;5.90;4.80;;;;;;;14.85;63.78;100339.10;118798;1192;21851;-88
2022/10/10 04:16:08;;;;;;;16.80;6.80;;;;;;;14.94;63.45;100330.02;118784;1189;21771;-89
2022/10/10 04:18:36;;;;;;;10.00;5.50;;;;;;;15.04;63.19;100332.52;118573;1192;21783;-89
2022/10/10 04:21:04;;;;;;;12.70;7.40;;;;;;;15.13;62.80;100333.48;118806;1192;21830;-87
2022/10/10 04:23:31;;;;;;;30.00;9.40;;;;;;;15.03;63.30;100338.56;118697;1193;21672;-87
2022/10/10 04:25:58;;;;;;;14.80;6.60;;;;;;;15.11;62.87;100330.71;118814;1192;21783;-86
2022/10/10 04:28:25;;;;;;;16.50;7.70;;;;;;;15.06;63.14;100334.94;118828;1189;22101;-86
2022/10/10 04:30:55;;;;;;;14.00;6.90;;;;;;;15.09;63.11;100331.82;118837;1189;21790;-88
2022/10/10 04:33:21;;;;;;;18.60;7.80;;;;;;;15.18;62.95;100327.68;118821;1189;21774;-86
2022/10/10 04:35:49;;;;;;;13.90;7.20;;;;;;;15.27;62.83;100330.36;118813;1192;21808;-86
2022/10/10 04:38:17;;;;;;;19.20;7.50;;;;;;;15.27;62.65;100337.08;118830;1191;21850;-86
2022/10/10 04:40:44;;;;;;;14.90;6.60;;;;;;;15.33;62.54;100334.79;118848;1191;21802;-85
2022/10/10 04:43:11;;;;;;;9.90;5.40;;;;;;;15.34;62.51;100349.77;118866;1188;21775;-86
2022/10/10 04:45:38;;;;;;;7.70;4.70;;;;;;;15.33;62.61;100353.34;118844;1189;21811;-85
2022/10/10 04:48:05;;;;;;;8.70;4.80;;;;;;;15.30;62.85;100352.55;118767;1191;21796;-87
2022/10/10 04:50:32;;;;;;;7.50;4.30;;;;;;;15.29;62.59;100356.10;118589;1191;22233;-86
2022/10/10 04:52:59;;;;;;;9.70;4.70;;;;;;;15.38;62.37;100350.17;118602;1191;21829;-87
2022/10/10 04:55:28;;;;;;;7.30;4.80;;;;;;;15.37;62.49;100352.69;118743;1192;21776;-87
2022/10/10 04:57:55;;;;;;;9.30;5.20;;;;;;;15.34;62.75;100362.70;118707;1191;21785;-87
2022/10/10 05:00:22;;;;;;;6.70;4.60;;;;;;;15.38;62.39;100361.14;118690;1191;22325;-88
2022/10/10 05:02:49;;;;;;;10.50;4.50;;;;;;;15.38;62.29;100364.48;118658;1191;21796;-87
2022/10/10 05:05:16;;;;;;;6.80;5.00;;;;;;;15.43;62.28;100368.93;118786;1191;22077;-86
2022/10/10 05:07:44;;;;;;;6.10;4.50;;;;;;;15.36;62.51;100372.88;118786;1187;21798;-85
2022/10/10 05:10:11;;;;;;;10.40;4.60;;;;;;;15.29;62.72;100374.33;118803;1191;21772;-87
2022/10/10 05:12:40;;;;;;;10.30;6.40;;;;;;;15.31;62.60;100377.80;118672;1189;21800;-86
2022/10/10 05:15:09;;;;;;;17.70;6.10;;;;;;;15.30;62.64;100377.65;118792;1187;21841;-87
2022/10/10 05:17:35;;;;;;;9.50;5.00;;;;;;;15.39;62.14;100377.55;118793;1192;21788;-87
2022/10/10 05:20:03;;;;;;;19.00;6.40;;;;;;;15.41;62.40;100377.50;118589;1192;21702;-86
2022/10/10 05:22:30;;;;;;;11.10;5.70;;;;;;;15.37;62.48;100383.27;118721;1192;21832;-88
2022/10/10 05:24:58;;;;;;;14.10;5.80;;;;;;;15.35;62.51;100387.94;118799;1188;22699;-86
2022/10/10 05:27:27;;;;;;;7.60;4.40;;;;;;;15.38;62.68;100386.61;118792;1187;22080;-87
2022/10/10 05:29:54;;;;;;;13.10;5.30;;;;;;;15.54;61.96;100375.30;118747;1189;21790;-88
2022/10/10 05:32:21;;;;;;;14.40;6.00;;;;;;;15.54;62.23;100382.34;118562;1194;21826;-87
2022/10/10 05:34:48;;;;;;;17.00;6.20;;;;;;;15.56;62.26;100385.82;118483;1192;21848;-87
2022/10/10 05:37:15;;;;;;;16.60;6.20;;;;;;;15.55;62.18;100385.51;118574;1189;21801;-88
2022/10/10 05:39:43;;;;;;;35.60;8.80;;;;;;;15.59;61.95;100385.73;118559;1193;22184;-86
2022/10/10 05:42:10;;;;;;;15.90;6.30;;;;;;;15.45;62.23;100396.27;118549;1190;21713;-86
2022/10/10 05:44:37;;;;;;;27.80;8.00;;;;;;;15.55;61.81;100380.38;118492;1194;21719;-88
2022/10/10 05:47:04;;;;;;;20.00;6.70;;;;;;;15.54;61.89;100389.97;118520;1192;21676;-88
2022/10/10 05:49:31;;;;;;;17.90;5.70;;;;;;;15.56;62.08;100383.19;118581;1194;21696;-85
2022/10/10 05:51:58;;;;;;;19.50;6.30;;;;;;;15.54;62.30;100385.54;118608;1194;21746;-86
2022/10/10 05:54:26;;;;;;;35.10;9.60;;;;;;;15.54;62.31;100395.63;118588;1194;21691;-86
2022/10/10 05:56:53;;;;;;;27.80;8.50;;;;;;;15.53;62.14;100402.38;118607;1193;21853;-86
2022/10/10 05:59:20;;;;;;;22.70;7.20;;;;;;;15.67;62.02;100388.84;118498;1194;21715;-87
2022/10/10 06:01:47;;;;;;;20.60;7.10;;;;;;;15.77;61.63;100387.07;118491;1194;21733;-89
2022/10/10 06:04:14;;;;;;;19.80;6.50;;;;;;;15.80;61.54;100390.02;118758;1191;21752;-89
2022/10/10 06:06:41;;;;;;;20.40;6.90;;;;;;;15.83;61.46;100394.85;118772;1191;21845;-88
2022/10/10 06:09:08;;;;;;;20.80;7.20;;;;;;;15.94;61.19;100392.20;118779;1187;21778;-88
2022/10/10 06:11:35;;;;;;;42.00;12.30;;;;;;;15.99;61.10;100394.70;118725;1191;21803;-91
2022/10/10 06:14:02;;;;;;;53.20;14.50;;;;;;;16.02;61.06;100394.06;118762;1188;22211;-87
2022/10/10 06:16:38;;;;;;;14.30;7.60;;;;;;;16.00;61.00;100398.55;118714;1191;21806;-92
2022/10/10 06:19:09;;;;;;;15.20;6.40;;;;;;;15.97;60.92;100404.66;118661;1189;21783;-90
2022/10/10 06:21:41;;;;;;;16.60;6.70;;;;;;;15.91;61.04;100400.99;118739;1191;21647;-88
2022/10/10 06:24:09;;;;;;;14.70;6.10;;;;;;;15.86;60.98;100400.77;118774;1191;22116;-91
2022/10/10 06:26:36;;;;;;;13.20;6.40;;;;;;;15.82;61.21;100395.60;118747;1191;21802;-91
2022/10/10 06:29:04;;;;;;;9.30;5.20;;;;;;;15.86;61.18;100395.30;118807;1191;21691;-90
2022/10/10 06:31:31;;;;;;;19.00;7.10;;;;;;;15.92;61.37;100394.57;118683;1192;22338;-86
2022/10/10 06:33:58;;;;;;;13.90;5.30;;;;;;;16.00;61.15;100396.27;118653;1189;22133;-88
2022/10/10 06:36:25;;;;;;;17.10;6.30;;;;;;;16.01;60.97;100396.41;118556;1192;22262;-90
2022/10/10 06:38:52;;;;;;;14.10;6.00;;;;;;;16.02;60.85;100392.29;118747;1192;21846;-91
2022/10/10 06:41:19;;;;;;;16.90;6.60;;;;;;;16.12;60.74;100399.89;118772;1187;21828;-91
2022/10/10 06:43:48;;;;;;;28.20;8.80;;;;;;;16.06;60.80;100405.96;118789;1191;21758;-90
2022/10/10 06:46:15;;;;;;;13.70;6.20;;;;;;;16.05;60.74;100401.76;118829;1191;21747;-93
2022/10/10 06:48:42;;;;;;;22.90;7.20;;;;;;;16.04;61.03;100411.52;118811;1191;21769;-89
2022/10/10 06:51:18;;;;;;;8.10;4.30;;;;;;;16.05;60.81;100407.78;118752;1191;21796;-90
2022/10/10 06:53:45;;;;;;;15.20;6.10;;;;;;;16.03;60.97;100400.41;118709;1192;22061;-91
2022/10/10 06:56:16;;;;;;;15.10;5.90;;;;;;;16.14;60.93;100402.48;118635;1193;21787;-89
2022/10/10 06:58:43;;;;;;;14.20;6.40;;;;;;;16.14;61.16;100404.60;118713;1191;21834;-88
2022/10/10 07:01:14;;;;;;;17.20;6.40;;;;;;;16.29;60.82;100401.11;118714;1188;21835;-87
2022/10/10 07:03:42;;;;;;;16.00;6.50;;;;;;;16.43;60.34;100406.27;118574;1193;21748;-86
2022/10/10 07:06:09;;;;;;;15.30;5.90;;;;;;;16.55;60.04;100393.40;118665;1192;21832;-88
2022/10/10 07:08:37;;;;;;;23.20;6.60;;;;;;;16.66;59.60;100390.00;118596;1192;21810;-86
2022/10/10 07:11:06;;;;;;;14.40;5.90;;;;;;;16.58;59.40;100391.00;118671;1187;21775;-85
2022/10/10 07:13:35;;;;;;;22.50;7.50;;;;;;;16.65;59.60;100392.52;118649;1191;21875;-86
2022/10/10 07:16:02;;;;;;;11.70;5.60;;;;;;;16.69;59.31;100399.83;118660;1191;21835;-87
2022/10/10 07:18:29;;;;;;;7.60;4.80;;;;;;;16.80;59.21;100388.76;118705;1192;21856;-86
2022/10/10 07:20:58;;;;;;;13.00;5.50;;;;;;;16.88;58.82;100386.86;118585;1189;21748;-85
2022/10/10 07:23:26;;;;;;;11.40;5.20;;;;;;;16.94;58.82;100388.98;118554;1189;22229;-86
2022/10/10 07:26:01;;;;;;;21.00;7.30;;;;;;;17.00;59.12;100382.34;118730;1187;22138;-88
2022/10/10 07:28:28;;;;;;;46.00;11.30;;;;;;;17.10;58.09;100387.98;118748;1191;22170;-87
2022/10/10 07:30:59;;;;;;;35.60;9.50;;;;;;;17.04;57.74;100387.71;118586;1192;21793;-87
2022/10/10 07:33:39;;;;;;;13.50;5.60;;;;;;;17.11;57.83;100376.46;118732;1191;22242;-87
2022/10/10 07:36:06;;;;;;;14.00;6.00;;;;;;;17.09;58.00;100370.32;118741;1187;21794;-89
2022/10/10 07:38:34;;;;;;;8.50;4.30;;;;;;;17.07;57.84;100381.20;118690;1191;21773;-89
2022/10/10 07:41:08;;;;;;;12.70;5.80;;;;;;;16.98;58.15;100370.55;118753;1191;21834;-87
2022/10/10 07:43:37;;;;;;;12.00;5.40;;;;;;;17.01;58.26;100369.92;118566;1191;21820;-87
2022/10/10 07:46:04;;;;;;;14.20;6.10;;;;;;;17.19;58.08;100368.50;118645;1191;21772;-88
2022/10/10 07:48:37;;;;;;;15.30;6.60;;;;;;;17.22;58.07;100365.02;118733;1191;21814;-87
2022/10/10 07:51:07;;;;;;;34.60;10.40;;;;;;;17.21;57.42;100373.40;118757;1191;22109;-89
2022/10/10 07:53:34;;;;;;;13.90;6.10;;;;;;;17.01;57.74;100375.41;118588;1191;21856;-86
2022/10/10 07:56:05;;;;;;;8.90;4.80;;;;;;;17.16;57.63;100369.68;118745;1190;21771;-87
2022/10/10 07:58:33;;;;;;;29.70;8.00;;;;;;;17.25;57.78;100376.78;118504;1191;21840;-85
2022/10/10 08:01:05;;;;;;;13.70;4.80;;;;;;;17.01;58.10;100372.59;118744;1191;21847;-87
2022/10/10 08:03:32;;;;;;;6.40;4.00;;;;;;;17.04;58.28;100373.73;118738;1191;21709;-89
2022/10/10 08:06:02;;;;;;;4.60;3.00;;;;;;;16.94;58.21;100384.72;118741;1191;21781;-87
2022/10/10 08:08:33;;;;;;;23.00;6.80;;;;;;;16.87;58.30;100375.59;118736;1191;22087;-87
2022/10/10 08:11:08;;;;;;;11.20;5.10;;;;;;;16.72;58.52;100375.62;118722;1191;21788;-86
2022/10/10 08:13:36;;;;;;;10.20;3.70;;;;;;;16.74;58.68;100374.80;118773;1191;21867;-86
2022/10/10 08:16:05;;;;;;;6.30;3.30;;;;;;;16.61;59.05;100371.41;118641;1191;21664;-88
2022/10/10 08:18:32;;;;;;;5.90;3.30;;;;;;;16.64;58.98;100372.90;118716;1191;22136;-85
2022/10/10 08:21:01;;;;;;;16.40;5.60;;;;;;;16.66;59.03;100365.74;118510;1194;22324;-85
2022/10/10 08:23:28;;;;;;;7.90;4.50;;;;;;;16.72;58.75;100374.90;118632;1192;21778;-87
2022/10/10 08:26:02;;;;;;;5.90;4.10;;;;;;;16.73;58.79;100365.13;118737;1191;22251;-87
2022/10/10 08:28:30;;;;;;;14.70;6.20;;;;;;;16.68;58.72;100371.51;118740;1191;21669;-86
2022/10/10 08:30:58;;;;;;;21.20;7.00;;;;;;;16.74;58.47;100371.27;118506;1191;22136;-89
2022/10/10 08:33:29;;;;;;;25.20;7.30;;;;;;;16.70;58.38;100374.80;118639;1191;21791;-86
2022/10/10 08:35:56;;;;;;;21.80;6.40;;;;;;;16.70;58.10;100374.10;118620;1191;21778;-89
2022/10/10 08:38:23;;;;;;;20.90;5.70;;;;;;;16.67;58.14;100375.79;118742;1191;22142;-87
2022/10/10 08:40:52;;;;;;;9.30;4.30;;;;;;;16.84;57.92;100369.67;118733;1191;21724;-87
2022/10/10 08:43:32;;;;;;;12.40;5.00;;;;;;;16.78;57.96;100364.74;118625;1191;21838;-89
2022/10/10 08:46:05;;;;;;;9.90;3.80;;;;;;;16.63;58.17;100366.01;118542;1194;21684;-87
2022/10/10 08:48:33;;;;;;;23.50;7.00;;;;;;;16.63;58.19;100373.65;118456;1192;21836;-88
2022/10/10 08:51:02;;;;;;;18.00;5.80;;;;;;;16.57;58.55;100377.40;118431;1194;21776;-88
2022/10/10 08:53:38;;;;;;;9.80;4.20;;;;;;;16.55;58.43;100379.81;118445;1194;21730;-87
2022/10/10 08:56:06;;;;;;;10.20;4.30;;;;;;;16.47;59.01;100377.59;118424;1194;22162;-88
2022/10/10 08:58:36;;;;;;;4.70;2.80;;;;;;;16.54;59.00;100375.75;118542;1194;21781;-89
2022/10/10 09:01:22;;;;;;;6.00;2.70;;;;;;;16.60;58.84;100373.55;118536;1194;21729;-86
2022/10/10 09:03:54;;;;;;;7.70;3.50;;;;;;;16.66;58.72;100372.83;118473;1194;21784;-87
2022/10/10 09:06:58;;;;;;;8.00;3.20;;;;;;;16.66;58.76;100369.64;118472;1192;21806;-87
2022/10/10 09:09:57;;;;;;;4.90;2.40;;;;;;;16.69;58.61;100377.14;118541;1194;21770;-88
2022/10/10 09:12:37;;;;;;;4.40;2.90;;;;;;;16.60;58.64;100379.95;118213;1192;22150;-86
2022/10/10 09:15:33;;;;;;;3.80;2.50;;;;;;;16.69;58.38;100375.17;118096;1197;21715;-88
2022/10/10 09:18:19;;;;;;;3.50;2.50;;;;;;;16.77;58.35;100379.30;117894;1200;21699;-87
2022/10/10 09:20:58;;;;;;;4.60;2.20;;;;;;;16.75;58.62;100376.02;118057;1200;21821;-89
2022/10/10 09:23:49;;;;;;;5.00;2.30;;;;;;;16.68;58.80;100374.70;117841;1201;21741;-89
2022/10/10 09:26:19;;;;;;;3.70;2.10;;;;;;;16.80;58.80;100373.36;118049;1200;21752;-86
2022/10/10 09:28:52;;;;;;;2.90;2.20;;;;;;;16.88;58.89;100373.05;117979;1200;21747;-88
2022/10/10 09:31:32;;;;;;;5.00;2.60;;;;;;;16.89;59.00;100376.92;117834;1200;21718;-89
2022/10/10 09:34:05;;;;;;;4.20;2.20;;;;;;;16.80;58.74;100388.23;117805;1200;22246;-88
2022/10/10 09:36:34;;;;;;;3.90;2.30;;;;;;;16.90;58.25;100375.27;117785;1200;21769;-87
2022/10/10 09:39:42;;;;;;;11.20;3.00;;;;;;;16.88;58.47;100374.30;118089;1197;21696;-87
2022/10/10 09:42:10;;;;;;;3.60;2.20;;;;;;;16.95;58.25;100375.79;117626;1196;21870;-87
2022/10/10 09:44:38;;;;;;;3.50;2.60;;;;;;;16.99;58.55;100371.61;118023;1200;21773;-86
2022/10/10 09:47:05;;;;;;;4.70;2.70;;;;;;;16.99;58.20;100374.45;118031;1200;22192;-89
2022/10/10 09:49:33;;;;;;;6.80;3.10;;;;;;;16.96;57.87;100381.81;118071;1198;21827;-88
2022/10/10 09:52:02;;;;;;;4.80;2.30;;;;;;;16.90;58.28;100372.47;118198;1198;21692;-86
2022/10/10 09:54:29;;;;;;;4.10;2.30;;;;;;;16.99;58.34;100377.61;118283;1193;21773;-86
2022/10/10 09:56:56;;;;;;;4.40;2.50;;;;;;;16.95;58.06;100376.86;118554;1193;21668;-85
2022/10/10 09:59:39;;;;;;;5.10;2.40;;;;;;;16.93;58.34;100374.66;118571;1193;21843;-88
2022/10/10 10:02:18;;;;;;;7.40;2.60;;;;;;;16.84;58.27;100374.25;118591;1193;21784;-85
2022/10/10 10:04:46;;;;;;;4.90;2.40;;;;;;;16.79;58.11;100374.64;118553;1190;22188;-88
2022/10/10 10:07:20;;;;;;;3.80;2.30;;;;;;;16.70;58.77;100375.33;118602;1193;22260;-88
2022/10/10 10:09:58;;;;;;;4.80;2.60;;;;;;;16.87;58.39;100378.74;118449;1194;22161;-89
2022/10/10 10:12:38;;;;;;;5.80;2.50;;;;;;;16.82;57.96;100376.83;118599;1193;21833;-88
2022/10/10 10:15:15;;;;;;;12.20;4.60;;;;;;;16.73;57.84;100374.17;118495;1194;21768;-87
2022/10/10 10:17:43;;;;;;;18.00;6.20;;;;;;;16.66;57.72;100369.45;118597;1189;22298;-88
2022/10/10 10:20:31;;;;;;;13.40;4.90;;;;;;;16.60;57.75;100378.70;118538;1190;21773;-91
2022/10/10 10:22:57;;;;;;;19.30;5.70;;;;;;;16.53;57.40;100377.55;118423;1193;22125;-86
2022/10/10 10:25:37;;;;;;;8.50;3.90;;;;;;;16.54;57.39;100369.90;118623;1189;21911;-90
2022/10/10 10:28:10;;;;;;;23.60;6.50;;;;;;;16.53;57.76;100362.52;117777;1189;1001996;-89
2022/10/10 10:30:38;;;;;;;9.90;3.50;;;;;;;16.48;57.79;100361.27;118579;1189;21846;-90
2022/10/10 10:33:26;;;;;;;4.80;2.70;;;;;;;16.41;57.96;100365.39;118586;1194;22255;-87
2022/10/10 10:36:25;;;;;;;5.90;2.40;;;;;;;16.44;58.45;100370.61;118581;1193;21840;-89
2022/10/10 10:39:08;;;;;;;4.70;2.10;;;;;;;16.54;58.57;100365.14;118584;1194;21752;-91
2022/10/10 10:41:45;;;;;;;4.70;2.30;;;;;;;16.19;59.21;100375.05;118509;1194;21788;-89
2022/10/10 10:44:21;;;;;;;4.60;1.80;;;;;;;16.20;59.23;100375.91;118612;1191;21727;-91
2022/10/10 10:47:09;;;;;;;5.00;2.30;;;;;;;16.14;59.54;100377.69;118713;1191;22207;-89
2022/10/10 10:49:39;;;;;;;3.30;2.00;;;;;;;16.16;59.49;100370.05;118730;1191;21794;-89
2022/10/10 10:52:15;;;;;;;3.20;1.80;;;;;;;16.16;59.94;100368.06;118584;1190;21856;-89
2022/10/10 10:54:42;;;;;;;4.60;2.10;;;;;;;16.23;59.49;100364.32;118787;1191;21773;-88
2022/10/10 10:57:21;;;;;;;4.60;2.50;;;;;;;16.23;59.84;100374.04;118570;1190;21806;-88
2022/10/10 11:00:19;;;;;;;3.60;1.90;;;;;;;16.13;60.71;100363.94;118454;1194;21828;-85
2022/10/10 11:03:40;;;;;;;4.00;2.50;;;;;;;16.02;60.79;100365.73;118485;1194;21758;-84
2022/10/10 11:06:54;;;;;;;4.00;2.30;;;;;;;15.91;61.13;100365.05;118412;1195;22173;-85
2022/10/10 11:09:48;;;;;;;3.50;2.20;;;;;;;15.79;60.76;100356.42;118373;1194;21807;-85
2022/10/10 11:12:25;;;;;;;3.90;2.20;;;;;;;15.75;61.29;100356.21;118444;1190;21829;-86
2022/10/10 11:14:57;;;;;;;3.90;1.90;;;;;;;15.65;61.28;100356.19;118484;1194;21789;-84
2022/10/10 11:17:29;;;;;;;2.70;1.80;;;;;;;15.60;61.78;100357.23;118420;1194;21750;-84
2022/10/10 11:20:06;;;;;;;3.50;2.00;;;;;;;15.65;61.05;100356.52;118456;1194;22099;-85
2022/10/10 11:22:49;;;;;;;4.60;2.40;;;;;;;15.75;61.78;100357.24;118420;1194;22143;-86
2022/10/10 11:25:31;;;;;;;4.00;2.50;;;;;;;15.73;61.84;100355.02;118394;1194;22203;-86
2022/10/10 11:28:14;;;;;;;3.20;2.00;;;;;;;15.71;61.25;100359.52;118464;1195;22281;-87
2022/10/10 11:30:45;;;;;;;4.60;2.00;;;;;;;15.64;61.39;100357.84;118527;1191;22164;-87
2022/10/10 11:33:35;;;;;;;3.70;2.50;;;;;;;15.57;61.70;100357.68;118663;1192;21768;-87
2022/10/10 11:36:11;;;;;;;3.60;2.40;;;;;;;15.53;62.04;100354.99;118588;1193;21783;-87
2022/10/10 11:38:43;;;;;;;3.80;2.70;;;;;;;15.52;61.80;100359.80;118647;1192;21772;-89
2022/10/10 11:41:23;;;;;;;4.50;3.10;;;;;;;15.49;61.72;100354.41;118720;1192;22174;-88
2022/10/10 11:44:14;;;;;;;2.50;1.70;;;;;;;15.39;62.07;100349.80;118600;1191;21979;-88
2022/10/10 11:46:50;;;;;;;4.90;2.30;;;;;;;15.17;62.78;100356.31;118610;1192;22282;-89
2022/10/10 11:49:21;;;;;;;4.50;2.20;;;;;;;15.22;62.16;100354.05;118755;1191;21864;-89